sensor_id;sensor_type;location;lat;lon;timestamp;P1;durP1;ratioP1;P2;durP2;ratioP2
21786;SDS011;11055;50.870;4.316;2024-03-06T00:02:04;6.20;;;4.82;;
21786;SDS011;11055;50.870;4.316;2024-03-06T00:04:30;7.38;;;4.78;;
21786;SDS011;11055;50.870;4.316;2024-03-06T00:06:56;8.73;;;4.68;;
21786;SDS011;11055;50.870;4.316;2024-03-06T00:09:23;5.63;;;5.00;;
21786;SDS011;11055;50.870;4.316;2024-03-06T00:11:50;7.70;;;4.85;;
21786;SDS011;11055;50.870;4.316;2024-03-06T00:14:17;6.07;;;4.93;;
21786;SDS011;11055;50.870;4.316;2024-03-06T00:16:43;5.13;;;4.60;;
21786;SDS011;11055;50.870;4.316;2024-03-06T00:19:08;5.47;;;4.60;;
21786;SDS011;11055;50.870;4.316;2024-03-06T00:21:34;7.07;;;5.05;;
21786;SDS011;11055;50.870;4.316;2024-03-06T00:24:01;7.45;;;5.40;;
21786;SDS011;11055;50.870;4.316;2024-03-06T00:26:28;7.28;;;5.20;;
21786;SDS011;11055;50.870;4.316;2024-03-06T00:28:54;6.20;;;4.88;;
21786;SDS011;11055;50.870;4.316;2024-03-06T00:31:20;9.40;;;5.90;;
21786;SDS011;11055;50.870;4.316;2024-03-06T00:33:45;7.55;;;4.90;;
21786;SDS011;11055;50.870;4.316;2024-03-06T00:36:11;7.55;;;5.13;;
21786;SDS011;11055;50.870;4.316;2024-03-06T00:38:37;6.13;;;5.20;;
21786;SDS011;11055;50.870;4.316;2024-03-06T00:41:02;7.40;;;5.32;;
21786;SDS011;11055;50.870;4.316;2024-03-06T00:43:28;5.88;;;4.53;;
21786;SDS011;11055;50.870;4.316;2024-03-06T00:45:54;6.13;;;4.90;;
21786;SDS011;11055;50.870;4.316;2024-03-06T00:48:21;6.10;;;4.82;;
21786;SDS011;11055;50.870;4.316;2024-03-06T00:50:46;7.55;;;5.15;;
21786;SDS011;11055;50.870;4.316;2024-03-06T00:53:12;5.95;;;4.57;;
21786;SDS011;11055;50.870;4.316;2024-03-06T00:55:38;6.57;;;5.15;;
21786;SDS011;11055;50.870;4.316;2024-03-06T00:58:03;7.05;;;5.55;;
21786;SDS011;11055;50.870;4.316;2024-03-06T01:00:31;5.53;;;4.93;;
21786;SDS011;11055;50.870;4.316;2024-03-06T01:02:57;7.20;;;4.93;;
21786;SDS011;11055;50.870;4.316;2024-03-06T01:05:22;6.90;;;5.50;;
21786;SDS011;11055;50.870;4.316;2024-03-06T01:07:48;5.53;;;4.93;;
21786;SDS011;11055;50.870;4.316;2024-03-06T01:10:14;6.63;;;5.40;;
21786;SDS011;11055;50.870;4.316;2024-03-06T01:12:39;7.25;;;5.57;;
21786;SDS011;11055;50.870;4.316;2024-03-06T01:15:05;8.57;;;5.78;;
21786;SDS011;11055;50.870;4.316;2024-03-06T01:17:32;5.85;;;5.35;;
21786;SDS011;11055;50.870;4.316;2024-03-06T01:19:58;7.93;;;5.50;;
21786;SDS011;11055;50.870;4.316;2024-03-06T01:22:25;7.22;;;5.40;;
21786;SDS011;11055;50.870;4.316;2024-03-06T01:24:51;7.18;;;4.97;;
21786;SDS011;11055;50.870;4.316;2024-03-06T01:27:17;6.22;;;5.63;;
21786;SDS011;11055;50.870;4.316;2024-03-06T01:29:42;6.90;;;5.45;;
21786;SDS011;11055;50.870;4.316;2024-03-06T01:32:08;8.68;;;5.90;;
21786;SDS011;11055;50.870;4.316;2024-03-06T01:34:35;8.15;;;5.65;;
21786;SDS011;11055;50.870;4.316;2024-03-06T01:37:01;7.07;;;5.93;;
21786;SDS011;11055;50.870;4.316;2024-03-06T01:39:26;8.50;;;6.47;;
21786;SDS011;11055;50.870;4.316;2024-03-06T01:41:52;6.95;;;6.05;;
21786;SDS011;11055;50.870;4.316;2024-03-06T01:44:18;7.00;;;6.20;;
21786;SDS011;11055;50.870;4.316;2024-03-06T01:46:44;7.63;;;6.05;;
21786;SDS011;11055;50.870;4.316;2024-03-06T01:49:10;5.88;;;5.28;;
21786;SDS011;11055;50.870;4.316;2024-03-06T01:51:38;8.65;;;5.93;;
21786;SDS011;11055;50.870;4.316;2024-03-06T01:54:05;6.97;;;5.85;;
21786;SDS011;11055;50.870;4.316;2024-03-06T01:56:32;6.90;;;5.50;;
21786;SDS011;11055;50.870;4.316;2024-03-06T01:59:00;6.45;;;5.57;;
21786;SDS011;11055;50.870;4.316;2024-03-06T02:01:27;6.80;;;5.88;;
21786;SDS011;11055;50.870;4.316;2024-03-06T02:03:53;6.43;;;5.63;;
21786;SDS011;11055;50.870;4.316;2024-03-06T02:06:19;6.55;;;5.70;;
21786;SDS011;11055;50.870;4.316;2024-03-06T02:08:46;9.15;;;5.72;;
21786;SDS011;11055;50.870;4.316;2024-03-06T02:11:12;6.32;;;5.72;;
21786;SDS011;11055;50.870;4.316;2024-03-06T02:13:39;7.50;;;6.35;;
21786;SDS011;11055;50.870;4.316;2024-03-06T02:16:05;6.68;;;6.07;;
21786;SDS011;11055;50.870;4.316;2024-03-06T02:18:31;8.38;;;6.60;;
21786;SDS011;11055;50.870;4.316;2024-03-06T02:20:57;8.77;;;6.68;;
21786;SDS011;11055;50.870;4.316;2024-03-06T02:23:22;8.32;;;5.80;;
21786;SDS011;11055;50.870;4.316;2024-03-06T02:25:48;6.97;;;5.65;;
21786;SDS011;11055;50.870;4.316;2024-03-06T02:28:15;8.20;;;6.63;;
21786;SDS011;11055;50.870;4.316;2024-03-06T02:30:41;7.15;;;5.90;;
21786;SDS011;11055;50.870;4.316;2024-03-06T02:33:07;7.30;;;6.05;;
21786;SDS011;11055;50.870;4.316;2024-03-06T02:35:34;8.23;;;6.60;;
21786;SDS011;11055;50.870;4.316;2024-03-06T02:38:04;8.63;;;6.63;;
21786;SDS011;11055;50.870;4.316;2024-03-06T02:40:31;7.72;;;6.00;;
21786;SDS011;11055;50.870;4.316;2024-03-06T02:42:57;9.32;;;6.03;;
21786;SDS011;11055;50.870;4.316;2024-03-06T02:45:23;7.55;;;6.18;;
21786;SDS011;11055;50.870;4.316;2024-03-06T02:47:48;7.07;;;6.25;;
21786;SDS011;11055;50.870;4.316;2024-03-06T02:50:14;9.48;;;6.97;;
21786;SDS011;11055;50.870;4.316;2024-03-06T02:52:40;7.18;;;6.32;;
21786;SDS011;11055;50.870;4.316;2024-03-06T02:55:06;7.88;;;6.93;;
21786;SDS011;11055;50.870;4.316;2024-03-06T02:57:32;8.50;;;6.75;;
21786;SDS011;11055;50.870;4.316;2024-03-06T02:59:58;8.20;;;6.80;;
21786;SDS011;11055;50.870;4.316;2024-03-06T03:02:24;8.68;;;6.82;;
21786;SDS011;11055;50.870;4.316;2024-03-06T03:04:50;8.93;;;6.88;;
21786;SDS011;11055;50.870;4.316;2024-03-06T03:07:17;7.68;;;6.28;;
21786;SDS011;11055;50.870;4.316;2024-03-06T03:09:44;9.15;;;6.60;;
21786;SDS011;11055;50.870;4.316;2024-03-06T03:12:10;7.90;;;6.53;;
21786;SDS011;11055;50.870;4.316;2024-03-06T03:14:36;7.47;;;6.63;;
21786;SDS011;11055;50.870;4.316;2024-03-06T03:17:02;7.85;;;7.03;;
21786;SDS011;11055;50.870;4.316;2024-03-06T03:19:30;7.40;;;6.28;;
21786;SDS011;11055;50.870;4.316;2024-03-06T03:21:56;8.50;;;6.88;;
21786;SDS011;11055;50.870;4.316;2024-03-06T03:24:23;8.25;;;7.00;;
21786;SDS011;11055;50.870;4.316;2024-03-06T03:26:50;7.80;;;6.95;;
21786;SDS011;11055;50.870;4.316;2024-03-06T03:29:16;8.75;;;6.82;;
21786;SDS011;11055;50.870;4.316;2024-03-06T03:31:42;8.25;;;6.88;;
21786;SDS011;11055;50.870;4.316;2024-03-06T03:34:08;8.13;;;6.60;;
21786;SDS011;11055;50.870;4.316;2024-03-06T03:36:33;8.27;;;6.65;;
21786;SDS011;11055;50.870;4.316;2024-03-06T03:38:59;8.13;;;6.68;;
21786;SDS011;11055;50.870;4.316;2024-03-06T03:41:25;8.93;;;7.47;;
21786;SDS011;11055;50.870;4.316;2024-03-06T03:43:51;7.63;;;6.82;;
21786;SDS011;11055;50.870;4.316;2024-03-06T03:46:16;8.65;;;6.85;;
21786;SDS011;11055;50.870;4.316;2024-03-06T03:48:42;9.02;;;6.30;;
21786;SDS011;11055;50.870;4.316;2024-03-06T03:51:08;9.30;;;7.18;;
21786;SDS011;11055;50.870;4.316;2024-03-06T03:53:34;8.55;;;7.13;;
21786;SDS011;11055;50.870;4.316;2024-03-06T03:56:00;8.25;;;6.60;;
21786;SDS011;11055;50.870;4.316;2024-03-06T03:58:26;8.65;;;6.72;;
21786;SDS011;11055;50.870;4.316;2024-03-06T04:00:52;7.80;;;7.00;;
21786;SDS011;11055;50.870;4.316;2024-03-06T04:03:20;11.98;;;7.53;;
21786;SDS011;11055;50.870;4.316;2024-03-06T04:05:46;8.23;;;7.20;;
21786;SDS011;11055;50.870;4.316;2024-03-06T04:08:12;9.45;;;6.97;;
21786;SDS011;11055;50.870;4.316;2024-03-06T04:10:38;10.48;;;7.32;;
21786;SDS011;11055;50.870;4.316;2024-03-06T04:13:04;8.48;;;7.13;;
21786;SDS011;11055;50.870;4.316;2024-03-06T04:15:29;8.23;;;7.25;;
21786;SDS011;11055;50.870;4.316;2024-03-06T04:17:56;9.45;;;7.40;;
21786;SDS011;11055;50.870;4.316;2024-03-06T04:20:21;11.23;;;7.55;;
21786;SDS011;11055;50.870;4.316;2024-03-06T04:22:47;10.38;;;8.25;;
21786;SDS011;11055;50.870;4.316;2024-03-06T04:25:15;11.88;;;8.57;;
21786;SDS011;11055;50.870;4.316;2024-03-06T04:27:42;12.57;;;10.48;;
21786;SDS011;11055;50.870;4.316;2024-03-06T04:30:07;12.45;;;8.50;;
21786;SDS011;11055;50.870;4.316;2024-03-06T04:32:34;10.80;;;7.88;;
21786;SDS011;11055;50.870;4.316;2024-03-06T04:34:59;10.95;;;8.25;;
21786;SDS011;11055;50.870;4.316;2024-03-06T04:37:25;9.65;;;7.72;;
21786;SDS011;11055;50.870;4.316;2024-03-06T04:39:52;12.77;;;8.50;;
21786;SDS011;11055;50.870;4.316;2024-03-06T04:42:17;8.98;;;7.97;;
21786;SDS011;11055;50.870;4.316;2024-03-06T04:44:45;9.85;;;7.88;;
21786;SDS011;11055;50.870;4.316;2024-03-06T04:47:10;10.38;;;7.75;;
21786;SDS011;11055;50.870;4.316;2024-03-06T04:49:36;13.02;;;9.40;;
21786;SDS011;11055;50.870;4.316;2024-03-06T04:52:02;10.23;;;8.13;;
21786;SDS011;11055;50.870;4.316;2024-03-06T04:54:28;12.30;;;8.98;;
21786;SDS011;11055;50.870;4.316;2024-03-06T04:56:54;10.73;;;8.60;;
21786;SDS011;11055;50.870;4.316;2024-03-06T04:59:20;13.25;;;9.75;;
21786;SDS011;11055;50.870;4.316;2024-03-06T05:01:46;10.70;;;8.40;;
21786;SDS011;11055;50.870;4.316;2024-03-06T05:04:12;8.90;;;7.85;;
21786;SDS011;11055;50.870;4.316;2024-03-06T05:06:37;12.13;;;8.85;;
21786;SDS011;11055;50.870;4.316;2024-03-06T05:09:03;10.93;;;8.10;;
21786;SDS011;11055;50.870;4.316;2024-03-06T05:11:30;10.55;;;7.93;;
21786;SDS011;11055;50.870;4.316;2024-03-06T05:13:58;13.85;;;7.82;;
21786;SDS011;11055;50.870;4.316;2024-03-06T05:16:28;9.55;;;7.97;;
21786;SDS011;11055;50.870;4.316;2024-03-06T05:18:53;17.52;;;11.77;;
21786;SDS011;11055;50.870;4.316;2024-03-06T05:21:19;12.07;;;8.27;;
21786;SDS011;11055;50.870;4.316;2024-03-06T05:23:47;11.13;;;8.23;;
21786;SDS011;11055;50.870;4.316;2024-03-06T05:26:13;9.45;;;7.88;;
21786;SDS011;11055;50.870;4.316;2024-03-06T05:28:40;9.30;;;7.88;;
21786;SDS011;11055;50.870;4.316;2024-03-06T05:31:15;11.60;;;8.93;;
21786;SDS011;11055;50.870;4.316;2024-03-06T05:33:44;13.57;;;8.05;;
21786;SDS011;11055;50.870;4.316;2024-03-06T05:36:10;13.93;;;7.97;;
21786;SDS011;11055;50.870;4.316;2024-03-06T05:38:38;11.35;;;8.23;;
21786;SDS011;11055;50.870;4.316;2024-03-06T05:41:04;12.98;;;9.73;;
21786;SDS011;11055;50.870;4.316;2024-03-06T05:43:30;11.35;;;8.10;;
21786;SDS011;11055;50.870;4.316;2024-03-06T05:45:55;12.00;;;8.30;;
21786;SDS011;11055;50.870;4.316;2024-03-06T05:48:21;10.07;;;8.07;;
21786;SDS011;11055;50.870;4.316;2024-03-06T05:50:46;13.30;;;8.65;;
21786;SDS011;11055;50.870;4.316;2024-03-06T05:53:12;11.85;;;8.43;;
21786;SDS011;11055;50.870;4.316;2024-03-06T05:55:38;10.02;;;8.55;;
21786;SDS011;11055;50.870;4.316;2024-03-06T05:58:04;10.05;;;8.13;;
21786;SDS011;11055;50.870;4.316;2024-03-06T06:00:30;15.18;;;8.25;;
21786;SDS011;11055;50.870;4.316;2024-03-06T06:02:56;11.52;;;8.38;;
21786;SDS011;11055;50.870;4.316;2024-03-06T06:05:22;12.10;;;8.50;;
21786;SDS011;11055;50.870;4.316;2024-03-06T06:07:49;12.05;;;7.97;;
21786;SDS011;11055;50.870;4.316;2024-03-06T06:10:15;9.13;;;7.68;;
21786;SDS011;11055;50.870;4.316;2024-03-06T06:12:41;13.00;;;8.02;;
21786;SDS011;11055;50.870;4.316;2024-03-06T06:15:07;11.27;;;7.90;;
21786;SDS011;11055;50.870;4.316;2024-03-06T06:17:33;12.98;;;8.32;;
21786;SDS011;11055;50.870;4.316;2024-03-06T06:19:59;10.10;;;7.50;;
21786;SDS011;11055;50.870;4.316;2024-03-06T06:22:27;12.70;;;8.68;;
21786;SDS011;11055;50.870;4.316;2024-03-06T06:24:52;10.13;;;7.85;;
21786;SDS011;11055;50.870;4.316;2024-03-06T06:27:20;12.52;;;9.13;;
21786;SDS011;11055;50.870;4.316;2024-03-06T06:29:45;16.27;;;9.38;;
21786;SDS011;11055;50.870;4.316;2024-03-06T06:32:11;15.38;;;8.60;;
21786;SDS011;11055;50.870;4.316;2024-03-06T06:34:37;14.50;;;8.75;;
21786;SDS011;11055;50.870;4.316;2024-03-06T06:37:02;13.85;;;8.40;;
21786;SDS011;11055;50.870;4.316;2024-03-06T06:39:28;9.60;;;8.60;;
21786;SDS011;11055;50.870;4.316;2024-03-06T06:41:53;12.65;;;9.40;;
21786;SDS011;11055;50.870;4.316;2024-03-06T06:44:20;20.77;;;9.30;;
21786;SDS011;11055;50.870;4.316;2024-03-06T06:46:46;14.13;;;8.77;;
21786;SDS011;11055;50.870;4.316;2024-03-06T06:49:11;18.88;;;9.25;;
21786;SDS011;11055;50.870;4.316;2024-03-06T06:51:37;12.38;;;10.02;;
21786;SDS011;11055;50.870;4.316;2024-03-06T06:54:03;14.32;;;9.13;;
21786;SDS011;11055;50.870;4.316;2024-03-06T06:56:29;17.58;;;9.77;;
21786;SDS011;11055;50.870;4.316;2024-03-06T06:58:55;13.25;;;9.52;;
21786;SDS011;11055;50.870;4.316;2024-03-06T07:01:21;12.57;;;9.57;;
21786;SDS011;11055;50.870;4.316;2024-03-06T07:03:47;12.43;;;9.25;;
21786;SDS011;11055;50.870;4.316;2024-03-06T07:06:13;12.05;;;9.45;;
21786;SDS011;11055;50.870;4.316;2024-03-06T07:08:38;15.25;;;9.98;;
21786;SDS011;11055;50.870;4.316;2024-03-06T07:11:04;17.85;;;10.43;;
21786;SDS011;11055;50.870;4.316;2024-03-06T07:13:30;14.43;;;9.88;;
21786;SDS011;11055;50.870;4.316;2024-03-06T07:15:55;13.07;;;9.13;;
21786;SDS011;11055;50.870;4.316;2024-03-06T07:18:21;12.80;;;9.10;;
21786;SDS011;11055;50.870;4.316;2024-03-06T07:20:47;13.95;;;9.48;;
21786;SDS011;11055;50.870;4.316;2024-03-06T07:23:13;12.73;;;9.23;;
21786;SDS011;11055;50.870;4.316;2024-03-06T07:25:38;10.57;;;8.70;;
21786;SDS011;11055;50.870;4.316;2024-03-06T07:28:04;14.75;;;8.88;;
21786;SDS011;11055;50.870;4.316;2024-03-06T07:30:30;12.95;;;8.85;;
21786;SDS011;11055;50.870;4.316;2024-03-06T07:32:56;11.57;;;8.75;;
21786;SDS011;11055;50.870;4.316;2024-03-06T07:35:22;13.77;;;9.30;;
21786;SDS011;11055;50.870;4.316;2024-03-06T07:37:48;12.30;;;8.85;;
21786;SDS011;11055;50.870;4.316;2024-03-06T07:40:14;15.02;;;9.57;;
21786;SDS011;11055;50.870;4.316;2024-03-06T07:42:40;14.35;;;9.23;;
21786;SDS011;11055;50.870;4.316;2024-03-06T07:45:05;12.68;;;8.93;;
21786;SDS011;11055;50.870;4.316;2024-03-06T07:47:33;10.32;;;8.88;;
21786;SDS011;11055;50.870;4.316;2024-03-06T07:49:59;13.65;;;8.60;;
21786;SDS011;11055;50.870;4.316;2024-03-06T07:52:25;10.88;;;7.95;;
21786;SDS011;11055;50.870;4.316;2024-03-06T07:54:50;11.15;;;8.43;;
21786;SDS011;11055;50.870;4.316;2024-03-06T07:57:16;15.52;;;10.82;;
21786;SDS011;11055;50.870;4.316;2024-03-06T07:59:43;10.55;;;8.43;;
21786;SDS011;11055;50.870;4.316;2024-03-06T08:02:09;17.08;;;10.40;;
21786;SDS011;11055;50.870;4.316;2024-03-06T08:04:34;20.50;;;11.48;;
21786;SDS011;11055;50.870;4.316;2024-03-06T08:07:00;21.63;;;13.63;;
21786;SDS011;11055;50.870;4.316;2024-03-06T08:09:26;15.35;;;9.70;;
21786;SDS011;11055;50.870;4.316;2024-03-06T08:11:53;15.27;;;9.95;;
21786;SDS011;11055;50.870;4.316;2024-03-06T08:14:19;17.15;;;10.23;;
21786;SDS011;11055;50.870;4.316;2024-03-06T08:16:45;14.88;;;9.75;;
21786;SDS011;11055;50.870;4.316;2024-03-06T08:19:11;16.15;;;9.32;;
21786;SDS011;11055;50.870;4.316;2024-03-06T08:21:37;12.68;;;9.00;;
21786;SDS011;11055;50.870;4.316;2024-03-06T08:24:03;11.65;;;8.38;;
21786;SDS011;11055;50.870;4.316;2024-03-06T08:26:28;10.77;;;8.20;;
21786;SDS011;11055;50.870;4.316;2024-03-06T08:28:54;13.60;;;8.52;;
21786;SDS011;11055;50.870;4.316;2024-03-06T08:31:20;17.23;;;11.30;;
21786;SDS011;11055;50.870;4.316;2024-03-06T08:33:46;14.27;;;9.80;;
21786;SDS011;11055;50.870;4.316;2024-03-06T08:36:13;13.48;;;8.90;;
21786;SDS011;11055;50.870;4.316;2024-03-06T08:38:39;10.90;;;7.85;;
21786;SDS011;11055;50.870;4.316;2024-03-06T08:41:06;12.55;;;7.78;;
21786;SDS011;11055;50.870;4.316;2024-03-06T08:43:31;10.77;;;7.65;;
21786;SDS011;11055;50.870;4.316;2024-03-06T08:45:57;9.77;;;7.20;;
21786;SDS011;11055;50.870;4.316;2024-03-06T08:48:23;9.13;;;7.72;;
21786;SDS011;11055;50.870;4.316;2024-03-06T08:50:49;8.65;;;6.95;;
21786;SDS011;11055;50.870;4.316;2024-03-06T08:53:16;11.10;;;7.30;;
21786;SDS011;11055;50.870;4.316;2024-03-06T08:55:41;9.25;;;7.10;;
21786;SDS011;11055;50.870;4.316;2024-03-06T08:58:07;11.65;;;7.82;;
21786;SDS011;11055;50.870;4.316;2024-03-06T09:00:34;10.77;;;7.47;;
21786;SDS011;11055;50.870;4.316;2024-03-06T09:03:00;12.35;;;7.28;;
21786;SDS011;11055;50.870;4.316;2024-03-06T09:05:25;10.65;;;7.72;;
21786;SDS011;11055;50.870;4.316;2024-03-06T09:07:51;9.57;;;7.68;;
21786;SDS011;11055;50.870;4.316;2024-03-06T09:10:17;10.90;;;7.32;;
21786;SDS011;11055;50.870;4.316;2024-03-06T09:12:44;10.77;;;7.47;;
21786;SDS011;11055;50.870;4.316;2024-03-06T09:15:10;10.48;;;8.05;;
21786;SDS011;11055;50.870;4.316;2024-03-06T09:17:37;13.13;;;7.72;;
21786;SDS011;11055;50.870;4.316;2024-03-06T09:20:03;9.35;;;7.75;;
21786;SDS011;11055;50.870;4.316;2024-03-06T09:22:38;11.25;;;7.88;;
21786;SDS011;11055;50.870;4.316;2024-03-06T09:25:05;8.65;;;7.70;;
21786;SDS011;11055;50.870;4.316;2024-03-06T09:27:31;12.15;;;8.35;;
21786;SDS011;11055;50.870;4.316;2024-03-06T09:29:57;10.07;;;7.82;;
21786;SDS011;11055;50.870;4.316;2024-03-06T09:32:22;12.20;;;8.07;;
21786;SDS011;11055;50.870;4.316;2024-03-06T09:34:48;13.20;;;8.55;;
21786;SDS011;11055;50.870;4.316;2024-03-06T09:37:14;12.38;;;8.90;;
21786;SDS011;11055;50.870;4.316;2024-03-06T09:39:40;10.32;;;8.15;;
21786;SDS011;11055;50.870;4.316;2024-03-06T09:42:06;12.07;;;10.13;;
21786;SDS011;11055;50.870;4.316;2024-03-06T09:44:32;9.95;;;7.20;;
21786;SDS011;11055;50.870;4.316;2024-03-06T09:46:59;8.18;;;7.13;;
21786;SDS011;11055;50.870;4.316;2024-03-06T09:49:31;12.32;;;7.97;;
21786;SDS011;11055;50.870;4.316;2024-03-06T09:51:56;8.50;;;6.50;;
21786;SDS011;11055;50.870;4.316;2024-03-06T09:54:23;10.88;;;7.50;;
21786;SDS011;11055;50.870;4.316;2024-03-06T09:56:51;9.90;;;7.03;;
21786;SDS011;11055;50.870;4.316;2024-03-06T09:59:20;12.20;;;7.65;;
21786;SDS011;11055;50.870;4.316;2024-03-06T10:01:55;10.65;;;7.28;;
21786;SDS011;11055;50.870;4.316;2024-03-06T10:04:26;10.48;;;6.50;;
21786;SDS011;11055;50.870;4.316;2024-03-06T10:06:52;10.57;;;6.38;;
21786;SDS011;11055;50.870;4.316;2024-03-06T10:09:22;9.73;;;6.50;;
21786;SDS011;11055;50.870;4.316;2024-03-06T10:11:49;9.00;;;6.68;;
21786;SDS011;11055;50.870;4.316;2024-03-06T10:14:15;10.23;;;6.35;;
21786;SDS011;11055;50.870;4.316;2024-03-06T10:19:18;18.65;;;12.20;;
21786;SDS011;11055;50.870;4.316;2024-03-06T10:21:48;13.20;;;9.80;;
21786;SDS011;11055;50.870;4.316;2024-03-06T10:24:27;46.03;;;26.63;;
21786;SDS011;11055;50.870;4.316;2024-03-06T10:26:58;12.65;;;10.43;;
21786;SDS011;11055;50.870;4.316;2024-03-06T10:29:25;16.42;;;13.20;;
21786;SDS011;11055;50.870;4.316;2024-03-06T10:31:55;10.30;;;8.10;;
21786;SDS011;11055;50.870;4.316;2024-03-06T10:34:22;11.77;;;7.25;;
21786;SDS011;11055;50.870;4.316;2024-03-06T10:36:55;10.55;;;7.63;;
21786;SDS011;11055;50.870;4.316;2024-03-06T10:39:33;8.18;;;6.15;;
21786;SDS011;11055;50.870;4.316;2024-03-06T10:42:03;7.28;;;5.60;;
21786;SDS011;11055;50.870;4.316;2024-03-06T10:44:33;6.05;;;4.90;;
21786;SDS011;11055;50.870;4.316;2024-03-06T10:47:00;5.00;;;4.45;;
21786;SDS011;11055;50.870;4.316;2024-03-06T10:49:28;6.90;;;4.20;;
21786;SDS011;11055;50.870;4.316;2024-03-06T10:51:58;6.28;;;4.63;;
21786;SDS011;11055;50.870;4.316;2024-03-06T10:54:28;5.25;;;4.18;;
21786;SDS011;11055;50.870;4.316;2024-03-06T10:56:55;7.50;;;4.10;;
21786;SDS011;11055;50.870;4.316;2024-03-06T10:59:22;4.88;;;3.42;;
21786;SDS011;11055;50.870;4.316;2024-03-06T11:01:52;7.82;;;4.13;;
21786;SDS011;11055;50.870;4.316;2024-03-06T11:04:25;6.15;;;4.85;;
21786;SDS011;11055;50.870;4.316;2024-03-06T11:06:55;7.55;;;4.57;;
21786;SDS011;11055;50.870;4.316;2024-03-06T11:09:22;7.28;;;4.47;;
21786;SDS011;11055;50.870;4.316;2024-03-06T11:11:48;8.70;;;5.78;;
21786;SDS011;11055;50.870;4.316;2024-03-06T11:14:16;10.35;;;7.10;;
21786;SDS011;11055;50.870;4.316;2024-03-06T11:28:22;8.38;;;3.58;;
21786;SDS011;11055;50.870;4.316;2024-03-06T11:33:34;9.57;;;3.80;;
21786;SDS011;11055;50.870;4.316;2024-03-06T11:36:19;5.95;;;4.40;;
21786;SDS011;11055;50.870;4.316;2024-03-06T11:38:56;4.68;;;2.90;;
21786;SDS011;11055;50.870;4.316;2024-03-06T11:41:58;4.88;;;3.08;;
21786;SDS011;11055;50.870;4.316;2024-03-06T11:44:17;4.95;;;3.17;;
21786;SDS011;11055;50.870;4.316;2024-03-06T11:49:20;5.93;;;3.53;;
21786;SDS011;11055;50.870;4.316;2024-03-06T11:51:50;7.13;;;3.15;;
21786;SDS011;11055;50.870;4.316;2024-03-06T11:54:24;6.38;;;3.80;;
21786;SDS011;11055;50.870;4.316;2024-03-06T11:56:53;9.38;;;4.07;;
21786;SDS011;11055;50.870;4.316;2024-03-06T11:59:23;7.43;;;4.35;;
21786;SDS011;11055;50.870;4.316;2024-03-06T12:01:50;5.22;;;3.78;;
21786;SDS011;11055;50.870;4.316;2024-03-06T12:04:20;12.07;;;8.20;;
21786;SDS011;11055;50.870;4.316;2024-03-06T12:06:46;6.32;;;4.07;;
21786;SDS011;11055;50.870;4.316;2024-03-06T12:09:12;5.72;;;3.38;;
21786;SDS011;11055;50.870;4.316;2024-03-06T12:11:39;5.40;;;3.67;;
21786;SDS011;11055;50.870;4.316;2024-03-06T12:14:04;5.68;;;3.28;;
21786;SDS011;11055;50.870;4.316;2024-03-06T12:16:30;3.63;;;3.20;;
21786;SDS011;11055;50.870;4.316;2024-03-06T12:18:56;6.78;;;3.45;;
21786;SDS011;11055;50.870;4.316;2024-03-06T12:21:32;4.43;;;3.13;;
21786;SDS011;11055;50.870;4.316;2024-03-06T12:24:05;3.67;;;3.03;;
21786;SDS011;11055;50.870;4.316;2024-03-06T12:26:34;5.75;;;3.80;;
21786;SDS011;11055;50.870;4.316;2024-03-06T12:29:05;6.80;;;3.55;;
21786;SDS011;11055;50.870;4.316;2024-03-06T12:31:31;4.95;;;3.58;;
21786;SDS011;11055;50.870;4.316;2024-03-06T12:33:57;7.95;;;3.55;;
21786;SDS011;11055;50.870;4.316;2024-03-06T12:36:27;7.70;;;3.65;;
21786;SDS011;11055;50.870;4.316;2024-03-06T12:38:55;8.25;;;3.50;;
21786;SDS011;11055;50.870;4.316;2024-03-06T12:41:21;5.53;;;3.60;;
21786;SDS011;11055;50.870;4.316;2024-03-06T12:43:47;5.78;;;3.10;;
21786;SDS011;11055;50.870;4.316;2024-03-06T12:46:13;6.18;;;3.00;;
21786;SDS011;11055;50.870;4.316;2024-03-06T12:48:38;8.80;;;2.97;;
21786;SDS011;11055;50.870;4.316;2024-03-06T12:51:04;4.97;;;2.88;;
21786;SDS011;11055;50.870;4.316;2024-03-06T12:53:30;3.22;;;2.72;;
21786;SDS011;11055;50.870;4.316;2024-03-06T12:55:57;6.65;;;3.00;;
21786;SDS011;11055;50.870;4.316;2024-03-06T12:58:23;8.02;;;3.40;;
21786;SDS011;11055;50.870;4.316;2024-03-06T13:00:49;7.28;;;3.25;;
21786;SDS011;11055;50.870;4.316;2024-03-06T13:03:17;4.43;;;3.33;;
21786;SDS011;11055;50.870;4.316;2024-03-06T13:05:43;5.82;;;3.38;;
21786;SDS011;11055;50.870;4.316;2024-03-06T13:08:08;6.75;;;4.28;;
21786;SDS011;11055;50.870;4.316;2024-03-06T13:10:38;10.10;;;3.33;;
21786;SDS011;11055;50.870;4.316;2024-03-06T13:13:03;5.43;;;2.97;;
21786;SDS011;11055;50.870;4.316;2024-03-06T13:15:31;6.63;;;3.20;;
21786;SDS011;11055;50.870;4.316;2024-03-06T13:17:56;6.68;;;3.60;;
21786;SDS011;11055;50.870;4.316;2024-03-06T13:20:22;8.05;;;3.45;;
21786;SDS011;11055;50.870;4.316;2024-03-06T13:22:48;7.07;;;3.00;;
21786;SDS011;11055;50.870;4.316;2024-03-06T13:25:13;4.35;;;2.95;;
21786;SDS011;11055;50.870;4.316;2024-03-06T13:27:39;5.85;;;3.08;;
21786;SDS011;11055;50.870;4.316;2024-03-06T13:30:05;7.07;;;3.80;;
21786;SDS011;11055;50.870;4.316;2024-03-06T13:32:33;5.38;;;3.60;;
21786;SDS011;11055;50.870;4.316;2024-03-06T13:34:58;5.25;;;3.00;;
21786;SDS011;11055;50.870;4.316;2024-03-06T13:37:24;5.68;;;3.30;;
21786;SDS011;11055;50.870;4.316;2024-03-06T13:39:50;7.03;;;3.60;;
21786;SDS011;11055;50.870;4.316;2024-03-06T13:42:17;4.72;;;3.33;;
21786;SDS011;11055;50.870;4.316;2024-03-06T13:44:43;8.48;;;3.67;;
21786;SDS011;11055;50.870;4.316;2024-03-06T13:47:14;5.10;;;3.00;;
21786;SDS011;11055;50.870;4.316;2024-03-06T13:49:41;4.40;;;3.03;;
21786;SDS011;11055;50.870;4.316;2024-03-06T13:52:07;3.85;;;2.88;;
21786;SDS011;11055;50.870;4.316;2024-03-06T13:54:40;10.15;;;4.32;;
21786;SDS011;11055;50.870;4.316;2024-03-06T13:57:07;6.57;;;3.45;;
21786;SDS011;11055;50.870;4.316;2024-03-06T13:59:33;5.40;;;3.33;;
21786;SDS011;11055;50.870;4.316;2024-03-06T14:02:00;6.05;;;3.20;;
21786;SDS011;11055;50.870;4.316;2024-03-06T14:04:26;4.63;;;2.90;;
21786;SDS011;11055;50.870;4.316;2024-03-06T14:06:52;4.75;;;3.17;;
21786;SDS011;11055;50.870;4.316;2024-03-06T14:09:18;5.18;;;3.05;;
21786;SDS011;11055;50.870;4.316;2024-03-06T14:11:44;8.18;;;3.00;;
21786;SDS011;11055;50.870;4.316;2024-03-06T14:14:09;6.88;;;3.03;;
21786;SDS011;11055;50.870;4.316;2024-03-06T14:16:36;9.15;;;3.58;;
21786;SDS011;11055;50.870;4.316;2024-03-06T14:19:05;6.30;;;3.17;;
21786;SDS011;11055;50.870;4.316;2024-03-06T14:21:31;3.38;;;2.75;;
21786;SDS011;11055;50.870;4.316;2024-03-06T14:24:00;6.10;;;3.10;;
21786;SDS011;11055;50.870;4.316;2024-03-06T14:26:32;7.32;;;3.15;;
21786;SDS011;11055;50.870;4.316;2024-03-06T14:29:00;7.30;;;3.70;;
21786;SDS011;11055;50.870;4.316;2024-03-06T14:31:27;5.03;;;3.58;;
21786;SDS011;11055;50.870;4.316;2024-03-06T14:33:53;7.35;;;4.07;;
21786;SDS011;11055;50.870;4.316;2024-03-06T14:36:18;7.63;;;3.78;;
21786;SDS011;11055;50.870;4.316;2024-03-06T14:38:46;6.60;;;3.90;;
21786;SDS011;11055;50.870;4.316;2024-03-06T14:41:12;5.15;;;3.95;;
21786;SDS011;11055;50.870;4.316;2024-03-06T14:43:38;6.90;;;3.80;;
21786;SDS011;11055;50.870;4.316;2024-03-06T14:46:07;8.90;;;5.07;;
21786;SDS011;11055;50.870;4.316;2024-03-06T14:48:34;6.35;;;3.67;;
21786;SDS011;11055;50.870;4.316;2024-03-06T14:51:00;8.23;;;3.80;;
21786;SDS011;11055;50.870;4.316;2024-03-06T14:53:26;5.85;;;4.45;;
21786;SDS011;11055;50.870;4.316;2024-03-06T14:55:52;7.18;;;4.22;;
21786;SDS011;11055;50.870;4.316;2024-03-06T14:58:18;5.88;;;3.53;;
21786;SDS011;11055;50.870;4.316;2024-03-06T15:00:44;5.07;;;3.58;;